Time;durP1;ratioP1;P1;durP2;ratioP2;P2;SDS_P1;SDS_P2;PMS_P1;PMS_P2;Temp;Humidity;BMP_temperature;BMP_pressure;BME280_temperature;BME280_humidity;BME280_pressure;Samples;Min_cycle;Max_cycle;Signal;HPM_P1;HPM_P2
2022/05/30 00:01:16;;;;;;;16.58;6.95;;;;;;;18.99;100.00;100219.94;5137856;27;20027;-70
2022/05/30 00:04:02;;;;;;;10.38;7.30;;;;;;;18.98;100.00;100231.50;5137281;27;20068;-70
2022/05/30 00:06:48;;;;;;;11.80;8.00;;;;;;;18.98;100.00;100242.13;5137042;27;20043;-71
2022/05/30 00:09:35;;;;;;;8.90;7.32;;;;;;;19.16;100.00;100233.91;5137101;27;20019;-71
2022/05/30 00:12:20;;;;;;;10.98;7.57;;;;;;;19.00;100.00;100232.25;5137681;27;20523;-70
2022/05/30 00:15:09;;;;;;;11.13;7.57;;;;;;;19.13;100.00;100225.28;5136621;27;20081;-70
2022/05/30 00:17:56;;;;;;;12.65;8.68;;;;;;;18.71;100.00;100239.28;5136324;27;20027;-70
2022/05/30 00:20:44;;;;;;;12.75;8.98;;;;;;;18.91;100.00;100252.25;5120839;27;20027;-70
2022/05/30 00:23:31;;;;;;;10.23;8.40;;;;;;;18.83;100.00;100243.03;5122512;27;20062;-71
2022/05/30 00:26:16;;;;;;;11.73;8.82;;;;;;;19.14;100.00;100248.25;5136289;27;20027;-70
2022/05/30 00:29:04;;;;;;;13.57;8.27;;;;;;;19.35;100.00;100256.72;5122834;27;20023;-71
2022/05/30 00:31:51;;;;;;;10.88;8.43;;;;;;;19.28;100.00;100250.09;5136895;27;20378;-71
2022/05/30 00:34:37;;;;;;;11.73;8.32;;;;;;;19.24;100.00;100252.06;5121591;27;20371;-71
2022/05/30 00:37:25;;;;;;;12.25;8.30;;;;;;;19.22;100.00;100256.59;5136332;27;20101;-71
2022/05/30 00:40:11;;;;;;;12.73;8.18;;;;;;;19.43;100.00;100250.00;5135847;27;20110;-72
2022/05/30 00:43:27;;;;;;;11.13;7.93;;;;;;;19.46;100.00;100244.53;5135844;27;20027;-71
2022/05/30 00:46:15;;;;;;;13.63;9.10;;;;;;;19.22;100.00;100245.97;5136513;27;20031;-71
2022/05/30 00:49:05;;;;;;;12.13;8.45;;;;;;;19.35;100.00;100246.09;5135459;27;20019;-71
2022/05/30 00:51:55;;;;;;;14.60;8.50;;;;;;;19.51;100.00;100255.72;5136954;27;20023;-71
2022/05/30 00:54:54;;;;;;;9.52;7.85;;;;;;;19.25;100.00;100243.16;5120936;27;20027;-71
2022/05/30 00:57:42;;;;;;;12.60;8.40;;;;;;;19.49;100.00;100249.63;5121290;27;20443;-71
2022/05/30 01:00:28;;;;;;;12.10;9.23;;;;;;;19.12;100.00;100243.00;5121132;27;20038;-72
2022/05/30 01:06:33;;;;;;;18.58;9.55;;;;;;;18.59;100.00;100241.78;5135952;27;20050;-71
2022/05/30 01:09:23;;;;;;;14.75;9.35;;;;;;;18.82;100.00;100234.19;5136285;27;20051;-70
2022/05/30 01:12:11;;;;;;;10.40;8.82;;;;;;;19.10;100.00;100236.91;5136214;27;20427;-71
2022/05/30 01:14:57;;;;;;;14.98;9.38;;;;;;;19.15;100.00;100237.53;5135391;27;20069;-71
2022/05/30 01:17:57;;;;;;;13.20;8.60;;;;;;;19.48;100.00;100255.06;5135424;27;20027;-71
2022/05/30 01:21:34;;;;;;;12.20;8.82;;;;;;;19.51;100.00;100262.81;5135365;27;20057;-71
2022/05/30 01:25:00;;;;;;;13.40;9.32;;;;;;;19.20;100.00;100255.81;5120392;27;20034;-72
2022/05/30 01:28:23;;;;;;;14.02;11.32;;;;;;;18.89;100.00;100254.13;5135362;27;20035;-71
2022/05/30 01:31:10;;;;;;;16.05;10.95;;;;;;;19.41;100.00;100267.84;5135414;27;20080;-71
2022/05/30 01:33:56;;;;;;;15.38;11.05;;;;;;;19.26;100.00;100279.41;5120250;27;20507;-70
2022/05/30 01:36:42;;;;;;;17.45;10.35;;;;;;;19.44;100.00;100286.25;5135701;27;20030;-71
2022/05/30 01:39:28;;;;;;;17.33;11.55;;;;;;;19.07;100.00;100295.56;5135235;27;20034;-71
2022/05/30 01:42:15;;;;;;;15.77;11.82;;;;;;;18.93;100.00;100292.00;5135591;27;20113;-70
2022/05/30 01:45:01;;;;;;;16.38;12.10;;;;;;;18.69;100.00;100288.09;5119785;27;20030;-71
2022/05/30 01:47:46;;;;;;;16.67;11.90;;;;;;;18.96;100.00;100295.31;5135383;27;20054;-71
2022/05/30 01:50:32;;;;;;;16.10;12.25;;;;;;;18.66;100.00;100282.97;5134662;27;20072;-71
2022/05/30 01:53:18;;;;;;;14.75;10.30;;;;;;;18.94;100.00;100275.13;5135155;27;20083;-71
2022/05/30 01:56:04;;;;;;;15.38;10.45;;;;;;;19.10;100.00;100270.59;5134891;27;20084;-71
2022/05/30 01:58:50;;;;;;;15.18;13.00;;;;;;;19.19;100.00;100267.41;5120135;27;20027;-71
2022/05/30 02:01:39;;;;;;;15.55;11.85;;;;;;;19.39;100.00;100277.72;5134757;27;20106;-71
2022/05/30 02:04:25;;;;;;;19.33;15.45;;;;;;;19.09;100.00;100279.53;5134834;28;20026;-71
2022/05/30 02:07:11;;;;;;;19.73;16.10;;;;;;;18.72;100.00;100287.91;5134993;28;20035;-72
2022/05/30 02:09:56;;;;;;;19.35;16.20;;;;;;;18.47;100.00;100284.94;5136623;27;20110;-72
2022/05/30 02:12:42;;;;;;;21.10;16.17;;;;;;;18.51;100.00;100279.38;5139234;27;20363;-70
2022/05/30 02:15:28;;;;;;;22.27;16.20;;;;;;;18.66;100.00;100282.97;5139107;27;20050;-71
2022/05/30 02:18:16;;;;;;;22.92;15.15;;;;;;;18.81;100.00;100276.78;5139538;27;20337;-71
2022/05/30 02:21:03;;;;;;;22.92;15.32;;;;;;;18.78;100.00;100275.13;5138244;27;20397;-71
2022/05/30 02:23:48;;;;;;;20.13;15.70;;;;;;;18.95;100.00;100284.78;5138894;27;20027;-71
2022/05/30 02:26:36;;;;;;;21.83;15.60;;;;;;;19.08;100.00;100272.47;5137298;27;20439;-71
2022/05/30 02:29:22;;;;;;;19.35;15.65;;;;;;;18.98;100.00;100288.09;5138970;27;20047;-71
2022/05/30 02:32:08;;;;;;;19.02;15.45;;;;;;;19.20;100.00;100282.38;5138562;27;20019;-71
2022/05/30 02:37:58;;;;;;;20.30;14.55;;;;;;;19.26;100.00;100281.19;5138446;27;20095;-71
2022/05/30 02:40:44;;;;;;;18.48;15.02;;;;;;;19.21;100.00;100284.94;5139695;27;20023;-70
2022/05/30 02:43:30;;;;;;;20.35;15.35;;;;;;;19.07;100.00;100300.00;5138859;27;20097;-70
2022/05/30 02:46:16;;;;;;;24.48;16.65;;;;;;;19.12;100.00;100295.25;5138849;27;20118;-70
2022/05/30 02:49:03;;;;;;;18.58;14.40;;;;;;;18.87;100.00;100302.94;5138306;27;20087;-70
2022/05/30 02:51:50;;;;;;;22.88;15.65;;;;;;;18.94;100.00;100310.47;5139168;27;20030;-71
2022/05/30 02:54:36;;;;;;;19.42;15.32;;;;;;;19.11;100.00;100294.44;5138281;27;20424;-71
2022/05/30 02:57:22;;;;;;;19.17;14.98;;;;;;;19.39;100.00;100295.44;5138701;27;20369;-70
2022/05/30 03:00:08;;;;;;;18.60;14.13;;;;;;;19.35;100.00;100304.56;5124365;27;20039;-70
2022/05/30 03:02:54;;;;;;;20.35;15.27;;;;;;;19.26;100.00;100299.78;5138007;27;20035;-69
2022/05/30 03:05:39;;;;;;;21.02;15.13;;;;;;;19.47;100.00;100306.47;5138587;27;20038;-70
2022/05/30 03:08:25;;;;;;;24.33;16.83;;;;;;;19.36;100.00;100300.97;5137213;27;20023;-71
2022/05/30 03:11:12;;;;;;;24.65;16.33;;;;;;;19.10;100.00;100318.41;5139087;27;20037;-71
2022/05/30 03:13:57;;;;;;;16.92;14.98;;;;;;;19.67;100.00;100311.44;5137890;27;20039;-71
2022/05/30 03:16:43;;;;;;;18.00;13.77;;;;;;;19.48;100.00;100314.34;5138346;27;20034;-71
2022/05/30 03:19:29;;;;;;;17.30;14.32;;;;;;;19.66;100.00;100315.91;5136561;27;20042;-71
2022/05/30 03:22:15;;;;;;;18.95;13.13;;;;;;;19.52;100.00;100309.72;5122724;27;20023;-72
2022/05/30 03:25:00;;;;;;;19.75;13.20;;;;;;;19.30;100.00;100325.22;5121930;27;20446;-71
2022/05/30 03:27:46;;;;;;;17.92;12.77;;;;;;;19.58;100.00;100339.44;5123707;27;20507;-70
2022/05/30 03:30:36;;;;;;;18.15;12.80;;;;;;;19.73;100.00;100337.66;5137611;27;20061;-71
2022/05/30 03:33:22;;;;;;;14.55;11.50;;;;;;;19.78;100.00;100335.56;5122512;27;20370;-72
2022/05/30 03:36:14;;;;;;;17.38;12.18;;;;;;;19.41;100.00;100355.50;5137315;27;20095;-70
2022/05/30 03:39:00;;;;;;;15.52;9.95;;;;;;;18.66;100.00;100362.56;5137546;27;20023;-71
2022/05/30 03:41:45;;;;;;;13.18;9.20;;;;;;;18.79;100.00;100368.91;5136870;27;20091;-71
2022/05/30 03:44:31;;;;;;;13.32;9.23;;;;;;;18.72;100.00;100375.47;5121910;27;20023;-71
2022/05/30 03:47:18;;;;;;;14.63;9.13;;;;;;;18.83;100.00;100386.34;5136694;27;20026;-71
2022/05/30 03:50:04;;;;;;;13.43;8.00;;;;;;;19.07;100.00;100390.28;5136525;27;20041;-71
2022/05/30 03:52:51;;;;;;;13.13;8.43;;;;;;;19.35;100.00;100382.47;5122525;27;20034;-72
2022/05/30 03:55:42;;;;;;;14.35;8.00;;;;;;;19.48;100.00;100387.91;5136089;27;20035;-71
2022/05/30 03:58:28;;;;;;;12.52;9.23;;;;;;;19.39;100.00;100381.34;5137089;27;20027;-72
2022/05/30 04:01:13;;;;;;;12.07;9.18;;;;;;;19.12;100.00;100399.69;5137089;27;20027;-71
2022/05/30 04:03:59;;;;;;;13.68;8.45;;;;;;;19.06;100.00;100412.47;5122134;27;20027;-70
2022/05/30 04:06:45;;;;;;;12.75;9.20;;;;;;;19.02;100.00;100411.78;5136246;27;20019;-71
2022/05/30 04:09:31;;;;;;;10.75;8.90;;;;;;;18.76;100.00;100415.06;5137251;27;20019;-71
2022/05/30 04:12:21;;;;;;;13.27;9.27;;;;;;;19.12;100.00;100412.97;5137232;27;20493;-72
2022/05/30 04:15:10;;;;;;;17.15;8.70;;;;;;;19.46;100.00;100411.06;5135578;27;20055;-71
2022/05/30 04:17:56;;;;;;;14.27;9.23;;;;;;;19.13;100.00;100421.81;5136876;27;20084;-71
2022/05/30 04:20:46;;;;;;;14.85;9.75;;;;;;;18.70;100.00;100433.94;5136490;27;20044;-71
2022/05/30 04:23:31;;;;;;;12.13;9.88;;;;;;;18.87;100.00;100428.59;5121937;27;20444;-70
2022/05/30 04:26:17;;;;;;;14.32;9.63;;;;;;;19.19;100.00;100438.25;5136262;27;20052;-71
2022/05/30 04:29:04;;;;;;;15.25;9.95;;;;;;;19.11;100.00;100447.59;5136219;27;20062;-70
2022/05/30 04:31:50;;;;;;;14.57;10.80;;;;;;;18.85;100.00;100442.88;5135041;27;20099;-71
2022/05/30 04:34:36;;;;;;;17.95;10.50;;;;;;;19.16;100.00;100438.41;5135692;27;20033;-69
2022/05/30 04:37:22;;;;;;;13.32;10.65;;;;;;;19.46;100.00;100425.22;5121381;27;20087;-69
2022/05/30 04:40:13;;;;;;;16.52;12.38;;;;;;;19.65;100.00;100424.97;5136570;27;20062;-68
2022/05/30 04:42:59;;;;;;;14.23;10.88;;;;;;;19.74;100.00;100430.63;5121868;27;20041;-70
2022/05/30 04:45:45;;;;;;;13.63;11.15;;;;;;;19.45;100.00;100430.59;5136407;27;20088;-73
2022/05/30 04:48:31;;;;;;;16.60;11.90;;;;;;;19.71;100.00;100429.91;5136426;27;20030;-70
2022/05/30 04:51:17;;;;;;;20.20;12.82;;;;;;;20.05;100.00;100430.47;5136072;27;20466;-71
2022/05/30 04:54:03;;;;;;;18.00;13.13;;;;;;;20.12;100.00;100431.84;5135075;27;20369;-71
2022/05/30 04:56:48;;;;;;;22.23;15.55;;;;;;;19.87;100.00;100436.03;5135943;27;20086;-71
2022/05/30 04:59:34;;;;;;;24.42;17.67;;;;;;;19.99;100.00;100440.63;5135756;27;20050;-70
2022/05/30 05:02:20;;;;;;;29.73;20.70;;;;;;;19.71;100.00;100449.41;5135566;27;20023;-70
2022/05/30 05:05:06;;;;;;;29.15;20.58;;;;;;;19.85;100.00;100441.44;5135740;27;20027;-71
2022/05/30 05:08:16;;;;;;;28.95;19.80;;;;;;;19.69;100.00;100459.25;5135653;27;20023;-70
2022/05/30 05:11:20;;;;;;;27.13;19.55;;;;;;;19.99;100.00;100465.44;5135894;27;20117;-71
2022/05/30 05:14:05;;;;;;;27.40;18.95;;;;;;;20.36;100.00;100472.91;5135461;27;20051;-70
2022/05/30 05:16:51;;;;;;;30.33;19.98;;;;;;;20.33;100.00;100467.78;5135762;27;20034;-70
2022/05/30 05:19:40;;;;;;;26.27;18.25;;;;;;;20.39;100.00;100480.72;5135330;27;20043;-70
2022/05/30 05:22:26;;;;;;;25.45;18.65;;;;;;;20.52;100.00;100484.34;5135374;27;20351;-70
2022/05/30 05:25:12;;;;;;;30.40;19.23;;;;;;;20.60;100.00;100479.38;5134597;27;20095;-70
2022/05/30 05:27:57;;;;;;;25.70;19.77;;;;;;;20.63;100.00;100484.53;5135673;27;20110;-70
2022/05/30 05:30:43;;;;;;;30.52;20.63;;;;;;;20.70;100.00;100488.50;5135595;27;20469;-71
2022/05/30 05:33:29;;;;;;;29.55;20.00;;;;;;;20.98;100.00;100499.16;5120635;27;20042;-71
2022/05/30 05:36:22;;;;;;;31.75;19.65;;;;;;;21.13;100.00;100505.34;5134506;27;20065;-70
2022/05/30 05:39:08;;;;;;;25.95;19.15;;;;;;;20.97;100.00;100513.44;5134961;27;20416;-70
2022/05/30 05:41:54;;;;;;;29.77;19.73;;;;;;;21.50;100.00;100518.00;5135111;27;20027;-70
2022/05/30 05:44:40;;;;;;;33.58;19.73;;;;;;;21.43;100.00;100517.56;5134824;27;20382;-70
2022/05/30 05:47:26;;;;;;;25.38;18.88;;;;;;;21.44;100.00;100515.72;5134841;27;20038;-71
2022/05/30 05:50:12;;;;;;;22.67;17.13;;;;;;;21.49;100.00;100518.94;5120517;27;20469;-71
2022/05/30 05:52:58;;;;;;;24.70;17.70;;;;;;;21.56;100.00;100518.44;5119872;27;20027;-71
2022/05/30 05:55:43;;;;;;;23.63;16.75;;;;;;;21.51;100.00;100519.69;5119283;27;20092;-71
2022/05/30 05:58:29;;;;;;;21.98;15.77;;;;;;;21.81;100.00;100518.56;5119533;27;20027;-71
2022/05/30 06:01:21;;;;;;;27.23;17.00;;;;;;;22.33;100.00;100515.88;5135008;27;20019;-71
2022/05/30 06:04:09;;;;;;;22.33;16.17;;;;;;;22.12;100.00;100528.03;5135488;27;20519;-70
2022/05/30 06:07:00;;;;;;;20.48;15.30;;;;;;;22.36;100.00;100526.34;5135544;28;20392;-72
2022/05/30 06:09:46;;;;;;;20.45;14.65;;;;;;;22.23;100.00;100537.00;5134601;28;20027;-71
2022/05/30 06:12:42;;;;;;;23.20;16.23;;;;;;;22.44;100.00;100540.91;5135009;28;20423;-71
2022/05/30 06:15:29;;;;;;;18.17;14.77;;;;;;;21.92;100.00;100545.38;5135076;28;20054;-70
2022/05/30 06:18:15;;;;;;;16.42;13.38;;;;;;;21.73;100.00;100542.22;5134031;28;20047;-70
2022/05/30 06:21:01;;;;;;;18.95;14.82;;;;;;;22.56;100.00;100536.56;5119438;28;20019;-70
2022/05/30 06:23:48;;;;;;;18.83;14.38;;;;;;;22.43;100.00;100549.00;5134644;28;20106;-70
2022/05/30 06:26:33;;;;;;;18.88;15.57;;;;;;;22.38;100.00;100546.66;5134358;28;20031;-71
2022/05/30 06:29:19;;;;;;;23.98;15.13;;;;;;;22.33;100.00;100551.44;5135405;27;20023;-72
2022/05/30 06:32:05;;;;;;;18.00;13.98;;;;;;;22.33;100.00;100551.44;5134601;28;20042;-73
2022/05/30 06:34:51;;;;;;;19.73;15.52;;;;;;;21.97;100.00;100555.72;5134530;28;20023;-72
2022/05/30 06:37:37;;;;;;;20.55;15.20;;;;;;;21.96;100.00;100559.38;5119571;28;20023;-74
2022/05/30 06:40:24;;;;;;;20.88;17.27;;;;;;;21.85;100.00;100565.41;5134679;28;20042;-72
2022/05/30 06:43:10;;;;;;;21.40;14.93;;;;;;;22.22;100.00;100559.31;5134528;28;20034;-73
2022/05/30 06:45:56;;;;;;;18.27;13.90;;;;;;;21.82;100.00;100562.94;5135088;28;20034;-74
2022/05/30 06:48:42;;;;;;;21.17;15.45;;;;;;;23.23;100.00;100574.47;5134298;28;20019;-75
2022/05/30 06:51:30;;;;;;;16.73;12.85;;;;;;;23.75;100.00;100573.34;5136205;28;20027;-73
2022/05/30 06:54:15;;;;;;;22.58;13.93;;;;;;;22.92;100.00;100569.56;5119890;27;20415;-72
2022/05/30 07:00:06;;;;;;;15.32;13.40;;;;;;;21.96;100.00;100584.25;5138652;27;20041;-73
2022/05/30 07:02:52;;;;;;;18.20;14.15;;;;;;;22.10;100.00;100589.50;5138179;27;20035;-73
2022/05/30 07:05:39;;;;;;;17.27;12.90;;;;;;;22.33;100.00;100586.16;5138766;27;20068;-73
2022/05/30 07:08:25;;;;;;;18.05;12.65;;;;;;;22.37;100.00;100585.00;5140074;27;20026;-74
2022/05/30 07:11:12;;;;;;;13.70;11.73;;;;;;;22.91;100.00;100588.38;5138637;27;20038;-73
2022/05/30 07:13:58;;;;;;;16.35;11.88;;;;;;;22.13;100.00;100599.13;5137595;27;20121;-75
2022/05/30 07:16:44;;;;;;;18.15;12.60;;;;;;;22.41;100.00;100596.31;5138974;27;20027;-74
2022/05/30 07:19:30;;;;;;;18.63;12.85;;;;;;;22.55;100.00;100607.78;5137878;27;20023;-74
2022/05/30 07:22:16;;;;;;;17.08;11.80;;;;;;;22.61;100.00;100614.53;5140876;27;20070;-74
2022/05/30 07:25:02;;;;;;;16.08;12.55;;;;;;;22.81;100.00;100614.88;5138299;27;20034;-75
2022/05/30 07:27:48;;;;;;;18.05;12.65;;;;;;;22.74;100.00;100618.94;5138035;27;20092;-75
2022/05/30 07:30:34;;;;;;;16.00;12.45;;;;;;;22.39;100.00;100628.44;5138294;27;20056;-74
2022/05/30 07:33:20;;;;;;;17.13;12.18;;;;;;;22.28;100.00;100627.47;5138261;27;20019;-75
2022/05/30 07:36:11;;;;;;;19.35;13.20;;;;;;;21.81;100.00;100627.06;5138782;27;20176;-75
2022/05/30 07:38:57;;;;;;;15.32;11.65;;;;;;;21.85;100.00;100632.13;5138451;27;20019;-75
2022/05/30 07:41:44;;;;;;;15.27;11.73;;;;;;;22.14;100.00;100638.22;5138213;27;20019;-74
2022/05/30 07:44:30;;;;;;;13.18;11.27;;;;;;;22.19;100.00;100641.44;5138456;27;20083;-75
2022/05/30 07:51:01;;;;;;;18.10;12.48;;;;;;;22.62;100.00;100656.28;5137655;27;20069;-73
2022/05/30 07:53:46;;;;;;;19.58;11.68;;;;;;;22.55;100.00;100661.19;5137382;27;20019;-73
2022/05/30 07:56:32;;;;;;;20.13;12.00;;;;;;;22.58;100.00;100655.66;5137001;27;20023;-73
2022/05/30 07:59:18;;;;;;;13.25;10.95;;;;;;;22.54;100.00;100655.97;5137423;27;20363;-73
2022/05/30 08:02:04;;;;;;;14.50;10.80;;;;;;;22.95;100.00;100670.88;5137086;27;20368;-73
2022/05/30 08:04:50;;;;;;;16.27;9.60;;;;;;;23.18;100.00;100662.13;5137096;27;20061;-72
2022/05/30 08:07:36;;;;;;;12.05;9.80;;;;;;;23.55;100.00;100665.78;5135654;27;20027;-73
2022/05/30 08:10:23;;;;;;;10.10;8.65;;;;;;;24.47;100.00;100675.00;5137451;27;20027;-72
2022/05/30 08:13:09;;;;;;;13.25;8.70;;;;;;;24.61;100.00;100677.50;5121604;27;20027;-72
2022/05/30 08:15:55;;;;;;;12.43;8.75;;;;;;;25.08;100.00;100670.19;5122579;27;20050;-72
2022/05/30 08:18:41;;;;;;;11.75;7.47;;;;;;;24.87;100.00;100676.38;5135880;27;20063;-74
2022/05/30 08:21:26;;;;;;;13.02;7.18;;;;;;;24.90;100.00;100670.75;5122082;27;20122;-73
2022/05/30 08:24:12;;;;;;;8.25;7.15;;;;;;;24.86;100.00;100683.56;5137001;27;20046;-73
2022/05/30 08:26:58;;;;;;;9.52;8.18;;;;;;;24.20;100.00;100679.72;5136661;27;20027;-72
2022/05/30 08:29:43;;;;;;;9.98;8.20;;;;;;;23.51;100.00;100672.31;5136853;27;20019;-74
2022/05/30 08:32:39;;;;;;;12.60;8.40;;;;;;;23.16;100.00;100687.25;5135706;27;20131;-73
2022/05/30 08:35:26;;;;;;;11.18;7.97;;;;;;;23.19;100.00;100690.56;5135837;27;20418;-73
2022/05/30 08:38:12;;;;;;;10.05;8.25;;;;;;;23.00;100.00;100689.28;5121080;27;20027;-72
2022/05/30 08:44:07;;;;;;;12.20;8.75;;;;;;;23.02;100.00;100696.22;5136161;27;20034;-73
2022/05/30 08:46:58;;;;;;;12.85;7.93;;;;;;;23.15;100.00;100704.28;5135903;27;20328;-73
2022/05/30 08:49:50;;;;;;;9.70;8.43;;;;;;;23.02;100.00;100709.59;5121012;27;20015;-73
2022/05/30 08:53:05;;;;;;;10.68;8.05;;;;;;;23.59;100.00;100704.72;5135823;27;20038;-73
2022/05/30 08:55:58;;;;;;;10.77;9.15;;;;;;;23.39;100.00;100700.75;5128422;27;20074;-73
2022/05/30 08:59:30;;;;;;;13.85;9.57;;;;;;;23.37;100.00;100709.84;5135515;27;20038;-72
2022/05/30 09:02:23;;;;;;;11.48;8.18;;;;;;;23.41;100.00;100706.00;5095819;27;20130;-71
2022/05/30 09:05:17;;;;;;;10.63;7.80;;;;;;;23.64;100.00;100701.69;5136281;27;20054;-71
2022/05/30 09:08:09;;;;;;;8.70;7.38;;;;;;;23.85;100.00;100716.19;5121673;27;20027;-71
2022/05/30 09:11:04;;;;;;;8.40;7.50;;;;;;;24.06;100.00;100717.38;5120784;27;20332;-71
2022/05/30 09:13:57;;;;;;;10.05;7.60;;;;;;;24.27;100.00;100723.84;5119740;27;20138;-70
2022/05/30 09:16:55;;;;;;;11.45;7.00;;;;;;;24.27;100.00;100718.47;5120830;27;20023;-71
2022/05/30 09:19:42;;;;;;;12.27;7.75;;;;;;;24.60;100.00;100730.22;5134471;27;20058;-72
2022/05/30 09:22:28;;;;;;;10.68;7.25;;;;;;;24.65;100.00;100725.41;5136016;27;20083;-71
2022/05/30 09:28:33;;;;;;;10.57;8.07;;;;;;;24.63;100.00;100731.84;5135780;27;20015;-71
2022/05/30 09:31:38;;;;;;;9.45;7.68;;;;;;;24.39;100.00;100729.13;5120715;27;20105;-71
2022/05/30 09:34:46;;;;;;;13.13;8.35;;;;;;;23.79;100.00;100733.53;5134571;27;20019;-71
2022/05/30 09:37:34;;;;;;;9.20;8.05;;;;;;;24.27;100.00;100734.53;5136019;27;20022;-72
2022/05/30 09:40:20;;;;;;;7.95;7.18;;;;;;;24.51;100.00;100732.72;5135269;27;20015;-71
2022/05/30 09:43:07;;;;;;;8.73;6.85;;;;;;;25.34;100.00;100740.59;5135098;27;20027;-71
2022/05/30 09:45:54;;;;;;;10.05;7.68;;;;;;;24.97;100.00;100737.22;5135153;27;20472;-71
2022/05/30 09:48:39;;;;;;;14.20;7.60;;;;;;;24.75;100.00;100747.84;5134736;27;20451;-70
2022/05/30 09:51:39;;;;;;;7.63;6.85;;;;;;;24.48;100.00;100743.66;5134616;27;20038;-71
2022/05/30 09:54:25;;;;;;;7.78;6.97;;;;;;;25.10;100.00;100747.84;5134452;27;20067;-72
2022/05/30 09:57:23;;;;;;;9.68;7.90;;;;;;;25.08;100.00;100737.22;5134983;27;20107;-71
2022/05/30 10:00:43;;;;;;;10.30;7.43;;;;;;;25.31;100.00;100744.38;5134737;27;20088;-71
2022/05/30 10:03:36;;;;;;;9.48;7.38;;;;;;;25.83;100.00;100739.31;5095027;27;20502;-71
2022/05/30 10:06:25;;;;;;;10.23;8.15;;;;;;;24.93;100.00;100741.09;5119686;28;20023;-71
2022/05/30 10:09:29;;;;;;;10.45;6.97;;;;;;;25.05;100.00;100744.66;5134136;28;20015;-71
2022/05/30 10:12:46;;;;;;;9.00;7.63;;;;;;;25.80;100.00;100736.03;5124179;28;20038;-72
2022/05/30 10:15:32;;;;;;;9.52;7.90;;;;;;;25.02;100.00;100742.22;5132106;28;20040;-76
2022/05/30 10:18:41;;;;;;;9.93;8.93;;;;;;;25.67;100.00;100737.94;5134951;28;20443;-76
2022/05/30 10:21:35;;;;;;;11.65;8.40;;;;;;;25.44;100.00;100737.09;5135275;28;20023;-75
2022/05/30 10:28:17;;;;;;;8.98;7.00;;;;;;;25.82;100.00;100736.75;5134725;28;20031;-75
2022/05/30 10:31:12;;;;;;;11.65;6.47;;;;;;;25.31;100.00;100727.47;5136861;27;20030;-76
2022/05/30 10:34:19;;;;;;;8.35;6.85;;;;;;;26.05;100.00;100731.28;5138943;27;20073;-76
2022/05/30 10:37:22;;;;;;;9.75;6.82;;;;;;;25.75;100.00;100733.69;5139035;27;20506;-71
2022/05/30 10:40:16;;;;;;;8.43;6.80;;;;;;;25.55;100.00;100733.59;5138086;27;20031;-71
2022/05/30 10:43:05;;;;;;;11.80;7.35;;;;;;;25.14;100.00;100738.59;5138390;27;20087;-72
2022/05/30 10:45:57;;;;;;;9.32;7.00;;;;;;;25.44;100.00;100731.72;5139034;27;20330;-71
2022/05/30 10:48:50;;;;;;;7.22;6.53;;;;;;;25.75;100.00;100731.00;5123780;27;20468;-71
2022/05/30 10:52:02;;;;;;;9.70;6.95;;;;;;;26.13;100.00;100727.97;5138266;27;20027;-71
2022/05/30 10:54:55;;;;;;;10.77;7.03;;;;;;;25.36;100.00;100728.78;5138271;27;20023;-71
2022/05/30 10:57:56;;;;;;;8.75;6.95;;;;;;;25.62;100.00;100735.66;5137806;27;20023;-71
2022/05/30 11:00:51;;;;;;;10.05;7.03;;;;;;;25.55;100.00;100728.22;5138615;27;20023;-71
2022/05/30 11:03:56;;;;;;;8.82;7.10;;;;;;;26.18;100.00;100723.06;5137862;27;20043;-70
2022/05/30 11:06:46;;;;;;;10.52;6.63;;;;;;;26.13;100.00;100719.91;5138983;27;20042;-72
2022/05/30 11:09:50;;;;;;;8.93;7.18;;;;;;;26.41;100.00;100719.34;5138692;27;20465;-71
2022/05/30 11:12:41;;;;;;;8.43;5.72;;;;;;;26.15;100.00;100716.09;5137362;27;20042;-71
2022/05/30 11:15:58;;;;;;;8.70;6.32;;;;;;;25.87;100.00;100718.41;5139012;27;20047;-75
2022/05/30 11:18:54;;;;;;;21.65;7.60;;;;;;;26.25;100.00;100713.53;5137719;27;20072;-75
2022/05/30 11:22:12;;;;;;;7.55;5.80;;;;;;;26.57;100.00;100717.09;5138520;27;20037;-74
2022/05/30 11:24:58;;;;;;;8.90;6.68;;;;;;;26.42;100.00;100719.22;5138825;27;20088;-75
2022/05/30 11:28:21;;;;;;;8.55;7.13;;;;;;;25.78;100.00;100713.81;5124738;27;20034;-74
2022/05/30 11:31:16;;;;;;;10.23;7.20;;;;;;;25.71;100.00;100712.56;5139090;27;20019;-74
2022/05/30 11:34:06;;;;;;;9.93;6.18;;;;;;;25.62;100.00;100707.94;5139173;27;20023;-73
2022/05/30 11:37:39;;;;;;;10.95;6.60;;;;;;;26.11;100.00;100716.47;5124914;27;20038;-75
2022/05/30 11:41:10;;;;;;;8.35;6.88;;;;;;;26.41;100.00;100722.03;5126522;27;20034;-74
2022/05/30 11:44:23;;;;;;;7.55;6.15;;;;;;;26.63;100.00;100719.28;5114860;27;20486;-75
2022/05/30 11:47:20;;;;;;;11.10;6.30;;;;;;;27.11;100.00;100720.50;5139024;27;20320;-74
2022/05/30 11:50:12;;;;;;;6.85;5.53;;;;;;;26.95;100.00;100722.78;5138921;27;20345;-75
2022/05/30 11:53:12;;;;;;;10.68;5.60;;;;;;;27.77;95.09;100714.69;5137225;27;20038;-75
2022/05/30 11:56:22;;;;;;;7.35;4.70;;;;;;;27.28;95.85;100726.19;5137377;27;20031;-75
2022/05/30 11:59:46;;;;;;;5.55;5.05;;;;;;;27.56;92.80;100716.53;5137817;27;20027;-75
2022/05/30 12:02:57;;;;;;;8.25;5.50;;;;;;;26.85;97.83;100722.72;5135727;27;20027;-74
2022/05/30 12:06:02;;;;;;;8.65;5.35;;;;;;;27.42;95.82;100711.53;5126277;27;20031;-73
2022/05/30 12:08:57;;;;;;;6.32;5.25;;;;;;;27.37;94.71;100714.59;5136896;27;20055;-70
2022/05/30 12:12:31;;;;;;;29.27;6.68;;;;;;;27.88;95.27;100711.91;5138313;27;20031;-73
2022/05/30 12:15:55;;;;;;;6.80;5.38;;;;;;;26.95;99.31;100718.28;5056107;28;20043;-72
2022/05/30 12:25:35;;;;;;;6.50;5.28;;;;;;;26.79;97.36;100727.75;5116621;28;20351;-72
2022/05/30 12:28:27;;;;;;;6.28;5.50;;;;;;;26.84;96.79;100723.72;5114952;28;20489;-76
2022/05/30 12:31:33;;;;;;;10.73;7.50;;;;;;;27.30;95.32;100723.34;5117877;28;20085;-74
2022/05/30 12:35:21;;;;;;;9.88;5.25;;;;;;;27.11;94.64;100717.81;5116301;28;20023;-74
2022/05/30 12:38:10;;;;;;;10.02;5.18;;;;;;;26.77;100.00;100727.06;5035473;28;20442;-74
2022/05/30 12:41:35;;;;;;;7.60;5.32;;;;;;;26.54;100.00;100715.50;5021860;28;20063;-74
2022/05/30 12:44:45;;;;;;;6.35;5.50;;;;;;;27.30;99.50;100720.66;5115906;28;20509;-74
2022/05/30 12:47:32;;;;;;;6.53;5.70;;;;;;;27.31;99.53;100722.38;5114823;28;20074;-73
2022/05/30 12:50:31;;;;;;;6.00;4.85;;;;;;;28.36;92.16;100718.25;5100949;28;20012;-76
2022/05/30 12:53:21;;;;;;;7.22;4.57;;;;;;;27.27;96.39;100707.47;5115507;28;20452;-76
2022/05/30 12:56:07;;;;;;;8.77;5.40;;;;;;;27.84;94.85;100717.72;5115474;28;20027;-74
2022/05/30 12:59:02;;;;;;;6.63;5.40;;;;;;;28.07;92.42;100711.09;5120490;28;20554;-76
2022/05/30 13:01:51;;;;;;;14.50;5.55;;;;;;;27.58;95.36;100704.66;5117412;28;20023;-75
2022/05/30 13:04:50;;;;;;;7.53;5.28;;;;;;;27.15;97.99;100716.56;5117489;28;20027;-75
2022/05/30 13:07:36;;;;;;;6.72;5.18;;;;;;;27.39;96.39;100709.97;5119257;28;20024;-75
2022/05/30 13:10:23;;;;;;;7.45;4.85;;;;;;;27.09;96.64;100709.88;5119967;28;20400;-74
2022/05/30 13:13:18;;;;;;;8.70;5.38;;;;;;;27.23;95.37;100709.59;5118855;28;20049;-74
2022/05/30 13:16:15;;;;;;;7.90;4.85;;;;;;;27.19;94.13;100705.41;5105555;28;20413;-76
2022/05/30 13:19:04;;;;;;;7.50;4.90;;;;;;;26.94;96.39;100696.91;5103747;28;20084;-76
2022/05/30 13:21:50;;;;;;;5.97;4.88;;;;;;;26.90;97.15;100706.22;5120437;28;20168;-75
2022/05/30 13:24:38;;;;;;;7.70;4.60;;;;;;;27.50;93.41;100690.19;5118348;28;20027;-75
2022/05/30 13:27:26;;;;;;;8.55;5.22;;;;;;;27.04;95.99;100700.50;5104413;28;20023;-75
2022/05/30 13:30:24;;;;;;;7.53;4.90;;;;;;;26.82;95.30;100696.13;5119380;28;20012;-75